sensor_id;sensor_type;location;lat;lon;timestamp;pressure;altitude;pressure_sealevel;temperature;humidity
85462;BME280;75865;42.672;23.360;2024-01-30T00:00:03;97043.44;;;1.32;54.15
85462;BME280;75865;42.672;23.360;2024-01-30T00:02:32;97038.50;;;1.31;54.33
85462;BME280;75865;42.672;23.360;2024-01-30T00:04:59;97045.00;;;1.33;53.32
85462;BME280;75865;42.672;23.360;2024-01-30T00:07:25;97046.84;;;1.33;54.05
85462;BME280;75865;42.672;23.360;2024-01-30T00:09:52;97050.53;;;1.32;54.09
85462;BME280;75865;42.672;23.360;2024-01-30T00:12:20;97041.44;;;1.29;54.83
85462;BME280;75865;42.672;23.360;2024-01-30T00:14:47;97046.94;;;1.28;54.41
85462;BME280;75865;42.672;23.360;2024-01-30T00:17:15;97053.00;;;1.23;53.96
85462;BME280;75865;42.672;23.360;2024-01-30T00:19:42;97053.00;;;1.23;53.84
85462;BME280;75865;42.672;23.360;2024-01-30T00:22:09;97055.34;;;1.25;54.08
85462;BME280;75865;42.672;23.360;2024-01-30T00:24:35;97052.44;;;1.26;54.38
85462;BME280;75865;42.672;23.360;2024-01-30T00:27:02;97047.22;;;1.26;54.60
85462;BME280;75865;42.672;23.360;2024-01-30T00:29:29;97046.22;;;1.22;54.16
85462;BME280;75865;42.672;23.360;2024-01-30T00:32:00;97042.53;;;1.23;54.49
85462;BME280;75865;42.672;23.360;2024-01-30T00:34:27;97061.34;;;1.25;54.43
85462;BME280;75865;42.672;23.360;2024-01-30T00:36:53;97052.44;;;1.26;54.79
85462;BME280;75865;42.672;23.360;2024-01-30T00:39:20;97049.63;;;1.23;54.03
85462;BME280;75865;42.672;23.360;2024-01-30T00:41:47;97047.38;;;1.16;54.49
85462;BME280;75865;42.672;23.360;2024-01-30T00:44:14;97046.78;;;1.19;54.23
85462;BME280;75865;42.672;23.360;2024-01-30T00:46:41;97046.31;;;1.17;54.83
85462;BME280;75865;42.672;23.360;2024-01-30T00:49:07;97052.09;;;1.14;54.61
85462;BME280;75865;42.672;23.360;2024-01-30T00:51:34;97052.38;;;1.13;54.59
85462;BME280;75865;42.672;23.360;2024-01-30T00:54:01;97041.91;;;1.13;54.46
85462;BME280;75865;42.672;23.360;2024-01-30T00:56:29;97036.97;;;1.11;54.66
85462;BME280;75865;42.672;23.360;2024-01-30T00:58:56;97047.38;;;1.16;54.78
85462;BME280;75865;42.672;23.360;2024-01-30T01:01:22;97030.25;;;1.05;54.38
85462;BME280;75865;42.672;23.360;2024-01-30T01:03:49;97043.75;;;1.12;54.94
85462;BME280;75865;42.672;23.360;2024-01-30T01:06:16;97047.94;;;1.13;54.91
85462;BME280;75865;42.672;23.360;2024-01-30T01:08:43;97039.06;;;1.09;54.42
85462;BME280;75865;42.672;23.360;2024-01-30T01:11:10;97046.16;;;1.08;55.42
85462;BME280;75865;42.672;23.360;2024-01-30T01:13:36;97047.19;;;1.07;55.45
85462;BME280;75865;42.672;23.360;2024-01-30T01:16:03;97049.53;;;1.09;54.86
85462;BME280;75865;42.672;23.360;2024-01-30T01:18:30;97045.94;;;1.05;54.61
85462;BME280;75865;42.672;23.360;2024-01-30T01:20:57;97045.94;;;1.05;55.42
85462;BME280;75865;42.672;23.360;2024-01-30T01:23:24;97051.19;;;1.05;55.93
85462;BME280;75865;42.672;23.360;2024-01-30T01:25:51;97045.44;;;1.03;55.68
85462;BME280;75865;42.672;23.360;2024-01-30T01:28:17;97049.63;;;1.04;55.74
85462;BME280;75865;42.672;23.360;2024-01-30T01:30:45;97045.50;;;0.98;55.98
85462;BME280;75865;42.672;23.360;2024-01-30T01:33:12;97048.63;;;1.00;56.02
85462;BME280;75865;42.672;23.360;2024-01-30T01:35:41;97052.28;;;0.99;56.39
85462;BME280;75865;42.672;23.360;2024-01-30T01:38:08;97049.69;;;0.99;55.92
85462;BME280;75865;42.672;23.360;2024-01-30T01:40:35;97051.50;;;0.98;55.97
85462;BME280;75865;42.672;23.360;2024-01-30T01:43:03;97045.50;;;0.98;55.79
85462;BME280;75865;42.672;23.360;2024-01-30T01:45:31;97047.34;;;0.97;55.95
85462;BME280;75865;42.672;23.360;2024-01-30T01:47:58;97039.88;;;0.91;55.78
85462;BME280;75865;42.672;23.360;2024-01-30T01:50:25;97049.25;;;0.92;55.40
85462;BME280;75865;42.672;23.360;2024-01-30T01:52:53;97049.31;;;0.87;56.06
85462;BME280;75865;42.672;23.360;2024-01-30T01:55:21;97040.78;;;0.81;54.96
85462;BME280;75865;42.672;23.360;2024-01-30T01:57:50;97051.44;;;0.85;55.64
85462;BME280;75865;42.672;23.360;2024-01-30T02:00:18;97055.88;;;0.84;55.36
85462;BME280;75865;42.672;23.360;2024-01-30T02:02:46;97055.59;;;0.86;55.83
85462;BME280;75865;42.672;23.360;2024-01-30T02:05:15;97059.78;;;0.87;55.69
85462;BME280;75865;42.672;23.360;2024-01-30T02:07:43;97058.72;;;0.88;55.54
85462;BME280;75865;42.672;23.360;2024-01-30T02:10:10;97056.09;;;0.88;55.96
85462;BME280;75865;42.672;23.360;2024-01-30T02:12:37;97057.66;;;0.89;56.39
85462;BME280;75865;42.672;23.360;2024-01-30T02:15:05;97066.28;;;0.89;55.60
85462;BME280;75865;42.672;23.360;2024-01-30T02:17:33;97057.88;;;0.92;55.11
85462;BME280;75865;42.672;23.360;2024-01-30T02:20:01;97057.53;;;0.99;55.55
85462;BME280;75865;42.672;23.360;2024-01-30T02:22:28;97055.91;;;1.03;55.36
85462;BME280;75865;42.672;23.360;2024-01-30T02:24:55;97054.56;;;1.05;55.57
85462;BME280;75865;42.672;23.360;2024-01-30T02:27:22;97051.88;;;1.11;54.93
85462;BME280;75865;42.672;23.360;2024-01-30T02:29:49;97047.38;;;1.16;55.61
85462;BME280;75865;42.672;23.360;2024-01-30T02:32:16;97042.91;;;1.17;55.01
85462;BME280;75865;42.672;23.360;2024-01-30T02:34:43;97055.91;;;1.22;54.37
85462;BME280;75865;42.672;23.360;2024-01-30T02:37:09;97048.06;;;1.22;54.41
85462;BME280;75865;42.672;23.360;2024-01-30T02:39:36;97057.47;;;1.23;53.94
85462;BME280;75865;42.672;23.360;2024-01-30T02:42:03;97050.38;;;1.23;54.23
85462;BME280;75865;42.672;23.360;2024-01-30T02:44:30;97050.66;;;1.22;53.65
85462;BME280;75865;42.672;23.360;2024-01-30T02:46:57;97061.34;;;1.25;54.45
85462;BME280;75865;42.672;23.360;2024-01-30T02:49:23;97059.25;;;1.27;53.43
85462;BME280;75865;42.672;23.360;2024-01-30T02:51:53;97052.44;;;1.26;53.49
85462;BME280;75865;42.672;23.360;2024-01-30T02:54:20;97057.91;;;1.30;53.27
85462;BME280;75865;42.672;23.360;2024-01-30T02:56:47;97056.53;;;1.32;54.08
85462;BME280;75865;42.672;23.360;2024-01-30T02:59:14;97051.31;;;1.32;53.61
85462;BME280;75865;42.672;23.360;2024-01-30T03:01:44;97054.34;;;1.39;53.24
85462;BME280;75865;42.672;23.360;2024-01-30T03:04:13;97056.38;;;1.42;52.89
85462;BME280;75865;42.672;23.360;2024-01-30T03:06:45;97049.63;;;1.41;53.39
85462;BME280;75865;42.672;23.360;2024-01-30T03:09:16;97047.75;;;1.42;53.25
85462;BME280;75865;42.672;23.360;2024-01-30T03:11:43;97042.50;;;1.42;53.94
85462;BME280;75865;42.672;23.360;2024-01-30T03:14:09;97043.28;;;1.42;53.53
85462;BME280;75865;42.672;23.360;2024-01-30T03:16:39;97038.00;;;1.48;52.77
85462;BME280;75865;42.672;23.360;2024-01-30T03:19:06;97047.13;;;1.50;52.96
85462;BME280;75865;42.672;23.360;2024-01-30T03:21:35;97052.63;;;1.49;53.12
85462;BME280;75865;42.672;23.360;2024-01-30T03:24:02;97052.84;;;1.52;52.17
85462;BME280;75865;42.672;23.360;2024-01-30T03:26:29;97052.06;;;1.52;52.95
85462;BME280;75865;42.672;23.360;2024-01-30T03:28:56;97050.69;;;1.54;53.12
85462;BME280;75865;42.672;23.360;2024-01-30T03:31:23;97047.31;;;1.54;52.41
85462;BME280;75865;42.672;23.360;2024-01-30T03:33:50;97039.47;;;1.54;53.13
85462;BME280;75865;42.672;23.360;2024-01-30T03:36:17;97042.06;;;1.54;52.54
85462;BME280;75865;42.672;23.360;2024-01-30T03:38:44;97036.56;;;1.55;52.67
85462;BME280;75865;42.672;23.360;2024-01-30T03:41:10;97041.22;;;1.58;52.75
85462;BME280;75865;42.672;23.360;2024-01-30T03:43:37;97011.81;;;1.48;53.14
85462;BME280;75865;42.672;23.360;2024-01-30T03:46:04;97039.38;;;1.59;52.88
85462;BME280;75865;42.672;23.360;2024-01-30T03:48:31;97028.91;;;1.59;52.26
85462;BME280;75865;42.672;23.360;2024-01-30T03:50:58;97025.25;;;1.60;52.71
85462;BME280;75865;42.672;23.360;2024-01-30T03:53:25;97022.63;;;1.60;51.88
85462;BME280;75865;42.672;23.360;2024-01-30T03:55:52;97024.19;;;1.61;51.69
85462;BME280;75865;42.672;23.360;2024-01-30T03:58:18;97021.28;;;1.62;52.28
85462;BME280;75865;42.672;23.360;2024-01-30T04:00:45;97029.13;;;1.62;52.16
85462;BME280;75865;42.672;23.360;2024-01-30T04:03:12;97020.41;;;1.67;52.00
85462;BME280;75865;42.672;23.360;2024-01-30T04:05:41;97023.50;;;1.69;52.46
85462;BME280;75865;42.672;23.360;2024-01-30T04:08:08;97029.53;;;1.69;52.47
85462;BME280;75865;42.672;23.360;2024-01-30T04:10:35;97023.72;;;1.72;51.58
85462;BME280;75865;42.672;23.360;2024-01-30T04:13:02;97020.81;;;1.74;51.96
85462;BME280;75865;42.672;23.360;2024-01-30T04:15:29;97027.63;;;1.75;51.71
85462;BME280;75865;42.672;23.360;2024-01-30T04:17:59;97021.88;;;1.73;51.98
85462;BME280;75865;42.672;23.360;2024-01-30T04:20:26;97023.94;;;1.76;51.52
85462;BME280;75865;42.672;23.360;2024-01-30T04:22:53;97021.78;;;1.78;51.33
85462;BME280;75865;42.672;23.360;2024-01-30T04:25:19;97025.50;;;1.77;51.70
85462;BME280;75865;42.672;23.360;2024-01-30T04:27:46;97006.25;;;1.68;51.27
85462;BME280;75865;42.672;23.360;2024-01-30T04:30:13;97025.00;;;1.75;50.83
85462;BME280;75865;42.672;23.360;2024-01-30T04:32:40;97029.47;;;1.74;51.51
85462;BME280;75865;42.672;23.360;2024-01-30T04:35:07;97033.63;;;1.75;51.62
85462;BME280;75865;42.672;23.360;2024-01-30T04:37:37;97048.56;;;1.75;51.56
85462;BME280;75865;42.672;23.360;2024-01-30T04:40:05;97023.44;;;1.74;51.71
85462;BME280;75865;42.672;23.360;2024-01-30T04:42:32;97039.66;;;1.76;51.10
85462;BME280;75865;42.672;23.360;2024-01-30T04:44:59;97032.94;;;1.70;50.95
85462;BME280;75865;42.672;23.360;2024-01-30T04:47:25;97039.22;;;1.69;51.32
85462;BME280;75865;42.672;23.360;2024-01-30T04:49:52;97023.69;;;1.59;51.26
85462;BME280;75865;42.672;23.360;2024-01-30T04:52:21;97048.50;;;1.61;51.40
85462;BME280;75865;42.672;23.360;2024-01-30T04:54:48;97048.31;;;1.58;52.33
85462;BME280;75865;42.672;23.360;2024-01-30T04:57:15;97057.78;;;1.54;51.69
85462;BME280;75865;42.672;23.360;2024-01-30T04:59:41;97054.97;;;1.50;52.16
85462;BME280;75865;42.672;23.360;2024-01-30T05:02:08;97052.63;;;1.49;52.37
85462;BME280;75865;42.672;23.360;2024-01-30T05:04:35;97058.72;;;1.44;52.34
85462;BME280;75865;42.672;23.360;2024-01-30T05:07:02;97054.91;;;1.36;52.36
85462;BME280;75865;42.672;23.360;2024-01-30T05:09:29;97059.94;;;1.33;52.72
85462;BME280;75865;42.672;23.360;2024-01-30T05:11:55;97061.75;;;1.32;51.63
85462;BME280;75865;42.672;23.360;2024-01-30T05:14:22;97066.50;;;1.30;52.35
85462;BME280;75865;42.672;23.360;2024-01-30T05:16:49;97063.19;;;1.25;52.10
85462;BME280;75865;42.672;23.360;2024-01-30T05:19:16;97058.25;;;1.23;51.79
85462;BME280;75865;42.672;23.360;2024-01-30T05:21:44;97065.03;;;1.24;51.95
85462;BME280;75865;42.672;23.360;2024-01-30T05:24:11;97061.91;;;1.22;51.05
85462;BME280;75865;42.672;23.360;2024-01-30T05:26:38;97048.69;;;1.14;51.64
85462;BME280;75865;42.672;23.360;2024-01-30T05:29:06;97070.31;;;1.19;51.97
85462;BME280;75865;42.672;23.360;2024-01-30T05:31:33;97064.63;;;1.17;51.61
85462;BME280;75865;42.672;23.360;2024-01-30T05:34:01;97059.72;;;1.11;51.75
85462;BME280;75865;42.672;23.360;2024-01-30T05:36:28;97063.91;;;1.12;51.65
85462;BME280;75865;42.672;23.360;2024-01-30T05:38:56;97063.13;;;1.11;51.92
85462;BME280;75865;42.672;23.360;2024-01-30T05:41:23;97060.00;;;1.09;51.72
85462;BME280;75865;42.672;23.360;2024-01-30T05:43:50;97070.53;;;1.04;51.61
85462;BME280;75865;42.672;23.360;2024-01-30T05:46:17;97071.31;;;1.04;51.67
85462;BME280;75865;42.672;23.360;2024-01-30T05:48:47;97068.97;;;1.03;52.58
85462;BME280;75865;42.672;23.360;2024-01-30T05:51:14;97073.44;;;1.02;52.40
85462;BME280;75865;42.672;23.360;2024-01-30T05:53:41;97069.53;;;1.00;53.17
85462;BME280;75865;42.672;23.360;2024-01-30T05:56:07;97066.97;;;0.95;52.10
85462;BME280;75865;42.672;23.360;2024-01-30T05:58:35;97065.94;;;0.96;52.63
85462;BME280;75865;42.672;23.360;2024-01-30T06:01:07;97063.13;;;0.92;53.03
85462;BME280;75865;42.672;23.360;2024-01-30T06:03:35;97062.88;;;0.89;53.60
85462;BME280;75865;42.672;23.360;2024-01-30T06:06:02;97073.06;;;0.90;53.30
85462;BME280;75865;42.672;23.360;2024-01-30T06:08:29;97064.72;;;0.88;54.18
85462;BME280;75865;42.672;23.360;2024-01-30T06:10:55;97073.13;;;0.85;54.59
85462;BME280;75865;42.672;23.360;2024-01-30T06:13:22;97063.44;;;0.86;53.73
85462;BME280;75865;42.672;23.360;2024-01-30T06:15:49;97078.34;;;0.85;53.96
85462;BME280;75865;42.672;23.360;2024-01-30T06:18:16;97073.41;;;0.84;53.54
85462;BME280;75865;42.672;23.360;2024-01-30T06:20:43;97055.03;;;0.70;54.20
85462;BME280;75865;42.672;23.360;2024-01-30T06:23:09;97080.00;;;0.81;54.46
85462;BME280;75865;42.672;23.360;2024-01-30T06:25:36;97087.81;;;0.81;54.47
85462;BME280;75865;42.672;23.360;2024-01-30T06:28:03;97081.81;;;0.81;54.21
85462;BME280;75865;42.672;23.360;2024-01-30T06:30:30;97077.56;;;0.85;54.79
85462;BME280;75865;42.672;23.360;2024-01-30T06:32:57;97075.47;;;0.87;54.37
85462;BME280;75865;42.672;23.360;2024-01-30T06:35:24;97083.25;;;0.92;54.03
85462;BME280;75865;42.672;23.360;2024-01-30T06:37:51;97081.13;;;0.94;53.80
85462;BME280;75865;42.672;23.360;2024-01-30T06:40:17;97078.72;;;0.97;53.98
85462;BME280;75865;42.672;23.360;2024-01-30T06:42:44;97074.28;;;0.98;53.52
85462;BME280;75865;42.672;23.360;2024-01-30T06:45:11;97085.47;;;1.03;53.38
85462;BME280;75865;42.672;23.360;2024-01-30T06:47:38;97084.88;;;1.06;53.54
85462;BME280;75865;42.672;23.360;2024-01-30T06:50:05;97077.03;;;1.06;53.06
85462;BME280;75865;42.672;23.360;2024-01-30T06:52:32;97082.47;;;1.10;52.27
85462;BME280;75865;42.672;23.360;2024-01-30T06:54:59;97082.19;;;1.12;52.59
85462;BME280;75865;42.672;23.360;2024-01-30T06:57:26;97090.28;;;1.15;53.12
85462;BME280;75865;42.672;23.360;2024-01-30T06:59:57;97092.03;;;1.20;53.50
85462;BME280;75865;42.672;23.360;2024-01-30T07:02:24;97091.75;;;1.21;52.71
85462;BME280;75865;42.672;23.360;2024-01-30T07:04:50;97096.41;;;1.24;51.89
85462;BME280;75865;42.672;23.360;2024-01-30T07:07:17;97101.66;;;1.24;50.45
85462;BME280;75865;42.672;23.360;2024-01-30T07:09:44;97086.72;;;1.25;50.67
85462;BME280;75865;42.672;23.360;2024-01-30T07:12:11;97088.28;;;1.26;50.64
85462;BME280;75865;42.672;23.360;2024-01-30T07:14:38;97101.09;;;1.27;50.68
85462;BME280;75865;42.672;23.360;2024-01-30T07:17:05;97085.94;;;1.24;49.79
85462;BME280;75865;42.672;23.360;2024-01-30T07:19:32;97084.94;;;1.20;49.98
85462;BME280;75865;42.672;23.360;2024-01-30T07:21:59;97094.16;;;1.18;50.14
85462;BME280;75865;42.672;23.360;2024-01-30T07:24:26;97090.78;;;1.17;48.72
85462;BME280;75865;42.672;23.360;2024-01-30T07:26:53;97076.34;;;1.01;49.11
85462;BME280;75865;42.672;23.360;2024-01-30T07:29:20;97090.88;;;1.07;48.91
85462;BME280;75865;42.672;23.360;2024-01-30T07:31:46;97089.53;;;1.09;50.52
85462;BME280;75865;42.672;23.360;2024-01-30T07:34:13;97087.06;;;1.18;50.96
85462;BME280;75865;42.672;23.360;2024-01-30T07:36:40;97083.41;;;1.19;49.20
85462;BME280;75865;42.672;23.360;2024-01-30T07:39:07;97079.72;;;1.20;49.36
85462;BME280;75865;42.672;23.360;2024-01-30T07:41:34;97088.50;;;1.29;48.71
85462;BME280;75865;42.672;23.360;2024-01-30T07:44:00;97081.13;;;1.31;48.67
85462;BME280;75865;42.672;23.360;2024-01-30T07:46:27;97088.84;;;1.23;48.35
85462;BME280;75865;42.672;23.360;2024-01-30T07:48:54;97076.81;;;1.22;48.93
85462;BME280;75865;42.672;23.360;2024-01-30T07:51:23;97064.31;;;1.19;47.81
85462;BME280;75865;42.672;23.360;2024-01-30T07:53:50;97082.13;;;1.35;47.99
85462;BME280;75865;42.672;23.360;2024-01-30T07:56:17;97084.88;;;1.44;47.84
85462;BME280;75865;42.672;23.360;2024-01-30T07:58:44;97091.50;;;1.55;47.24
85462;BME280;75865;42.672;23.360;2024-01-30T08:01:11;97086.44;;;1.64;46.97
85462;BME280;75865;42.672;23.360;2024-01-30T08:03:38;97080.16;;;1.78;47.15
85462;BME280;75865;42.672;23.360;2024-01-30T08:06:07;97080.69;;;1.94;47.05
85462;BME280;75865;42.672;23.360;2024-01-30T08:08:34;97066.28;;;2.10;47.76
85462;BME280;75865;42.672;23.360;2024-01-30T08:11:01;97078.72;;;2.32;47.70
85462;BME280;75865;42.672;23.360;2024-01-30T08:13:27;97072.31;;;2.52;46.78
85462;BME280;75865;42.672;23.360;2024-01-30T08:15:54;97088.34;;;2.64;45.59
85462;BME280;75865;42.672;23.360;2024-01-30T08:18:21;97078.94;;;2.77;45.86
85462;BME280;75865;42.672;23.360;2024-01-30T08:20:48;97073.09;;;2.94;45.08
85462;BME280;75865;42.672;23.360;2024-01-30T08:23:15;97080.91;;;3.07;44.97
85462;BME280;75865;42.672;23.360;2024-01-30T08:25:43;97075.34;;;3.22;44.22
85462;BME280;75865;42.672;23.360;2024-01-30T08:28:10;97070.75;;;3.42;44.09
85462;BME280;75865;42.672;23.360;2024-01-30T08:30:37;97080.81;;;3.71;43.83
85462;BME280;75865;42.672;23.360;2024-01-30T08:33:06;97079.22;;;4.37;43.90
85462;BME280;75865;42.672;23.360;2024-01-30T08:35:33;97088.72;;;5.46;42.01
85462;BME280;75865;42.672;23.360;2024-01-30T08:38:00;97082.78;;;6.65;40.06
85462;BME280;75865;42.672;23.360;2024-01-30T08:40:27;97098.69;;;7.77;37.52
85462;BME280;75865;42.672;23.360;2024-01-30T08:42:55;97095.75;;;9.05;35.46
85462;BME280;75865;42.672;23.360;2024-01-30T08:45:22;97099.97;;;10.14;32.83
85462;BME280;75865;42.672;23.360;2024-01-30T08:47:49;97098.03;;;10.43;31.58
85462;BME280;75865;42.672;23.360;2024-01-30T08:50:16;97110.56;;;10.14;31.57
85462;BME280;75865;42.672;23.360;2024-01-30T08:52:42;97107.09;;;9.70;31.65
85462;BME280;75865;42.672;23.360;2024-01-30T08:55:11;97095.75;;;9.05;32.22
85462;BME280;75865;42.672;23.360;2024-01-30T08:57:38;97101.16;;;8.60;33.10
85462;BME280;75865;42.672;23.360;2024-01-30T09:00:06;97098.28;;;8.20;33.13
85462;BME280;75865;42.672;23.360;2024-01-30T09:02:35;97099.63;;;7.93;34.38
85462;BME280;75865;42.672;23.360;2024-01-30T09:05:02;97106.16;;;7.75;34.52
85462;BME280;75865;42.672;23.360;2024-01-30T09:07:29;97101.47;;;7.60;34.95
85462;BME280;75865;42.672;23.360;2024-01-30T09:09:56;97098.63;;;7.44;34.66
85462;BME280;75865;42.672;23.360;2024-01-30T09:12:23;97102.31;;;7.31;35.26
85462;BME280;75865;42.672;23.360;2024-01-30T09:14:50;97103.72;;;7.29;35.22
85462;BME280;75865;42.672;23.360;2024-01-30T09:17:16;97099.66;;;8.06;34.60
85462;BME280;75865;42.672;23.360;2024-01-30T09:19:43;97092.28;;;8.44;33.94
85462;BME280;75865;42.672;23.360;2024-01-30T09:22:10;97093.06;;;8.45;33.84
85462;BME280;75865;42.672;23.360;2024-01-30T09:24:37;97082.53;;;8.24;33.29
85462;BME280;75865;42.672;23.360;2024-01-30T09:27:04;97087.50;;;7.92;33.61
85462;BME280;75865;42.672;23.360;2024-01-30T09:29:31;97081.78;;;7.70;34.18
85462;BME280;75865;42.672;23.360;2024-01-30T09:32:00;97087.78;;;7.58;34.51
85462;BME280;75865;42.672;23.360;2024-01-30T09:34:27;97091.94;;;7.47;35.00
85462;BME280;75865;42.672;23.360;2024-01-30T09:36:54;97087.47;;;7.18;36.24
85462;BME280;75865;42.672;23.360;2024-01-30T09:39:21;97085.03;;;6.83;36.64
85462;BME280;75865;42.672;23.360;2024-01-30T09:44:59;97074.75;;;6.52;37.73
85462;BME280;75865;42.672;23.360;2024-01-30T09:47:26;97071.25;;;6.40;37.69
85462;BME280;75865;42.672;23.360;2024-01-30T09:49:54;97064.00;;;6.28;38.44
85462;BME280;75865;42.672;23.360;2024-01-30T09:52:22;97087.72;;;6.28;38.75
85462;BME280;75865;42.672;23.360;2024-01-30T09:54:51;97079.81;;;6.28;38.18
85462;BME280;75865;42.672;23.360;2024-01-30T09:57:18;97078.59;;;6.17;38.25
85462;BME280;75865;42.672;23.360;2024-01-30T09:59:45;97072.88;;;6.15;38.51
85462;BME280;75865;42.672;23.360;2024-01-30T10:02:12;97071.97;;;6.11;38.29
85462;BME280;75865;42.672;23.360;2024-01-30T10:04:39;97063.63;;;6.00;38.81
85462;BME280;75865;42.672;23.360;2024-01-30T10:07:07;97057.88;;;5.98;39.18
85462;BME280;75865;42.672;23.360;2024-01-30T10:09:34;97063.63;;;6.00;38.78
85462;BME280;75865;42.672;23.360;2024-01-30T10:12:01;97057.25;;;5.93;38.75
85462;BME280;75865;42.672;23.360;2024-01-30T10:14:30;97053.06;;;5.92;38.91
85462;BME280;75865;42.672;23.360;2024-01-30T10:16:57;97059.13;;;5.84;39.18
85462;BME280;75865;42.672;23.360;2024-01-30T10:19:24;97067.03;;;5.75;39.36
85462;BME280;75865;42.672;23.360;2024-01-30T10:21:51;97060.38;;;5.69;39.03
85462;BME280;75865;42.672;23.360;2024-01-30T10:24:18;97066.25;;;5.74;39.39
85462;BME280;75865;42.672;23.360;2024-01-30T10:26:45;97064.25;;;5.71;38.88
85462;BME280;75865;42.672;23.360;2024-01-30T10:29:13;97069.22;;;5.56;39.60
85462;BME280;75865;42.672;23.360;2024-01-30T10:31:40;97057.91;;;5.55;39.60
85462;BME280;75865;42.672;23.360;2024-01-30T10:34:07;97059.75;;;5.55;39.77
85462;BME280;75865;42.672;23.360;2024-01-30T10:36:46;97046.59;;;5.55;40.23
85462;BME280;75865;42.672;23.360;2024-01-30T10:39:17;97069.19;;;6.07;40.12
85462;BME280;75865;42.672;23.360;2024-01-30T10:41:47;97058.13;;;7.19;38.70
85462;BME280;75865;42.672;23.360;2024-01-30T10:44:18;97054.59;;;8.59;36.93
85462;BME280;75865;42.672;23.360;2024-01-30T10:46:50;97041.34;;;9.92;34.45
85462;BME280;75865;42.672;23.360;2024-01-30T10:49:21;97054.41;;;11.26;32.72
85462;BME280;75865;42.672;23.360;2024-01-30T10:51:49;97060.75;;;12.37;30.04
85462;BME280;75865;42.672;23.360;2024-01-30T10:54:17;97056.19;;;13.40;30.04
85462;BME280;75865;42.672;23.360;2024-01-30T10:56:44;97051.69;;;14.51;28.22
85462;BME280;75865;42.672;23.360;2024-01-30T10:59:12;97049.19;;;15.38;26.14
85462;BME280;75865;42.672;23.360;2024-01-30T11:01:40;97052.91;;;16.06;25.60
85462;BME280;75865;42.672;23.360;2024-01-30T11:04:07;97037.28;;;16.96;24.71
85462;BME280;75865;42.672;23.360;2024-01-30T11:06:41;97045.66;;;17.20;23.82
85462;BME280;75865;42.672;23.360;2024-01-30T11:09:11;97040.88;;;17.81;23.10
85462;BME280;75865;42.672;23.360;2024-01-30T11:11:55;97040.91;;;17.59;22.97
85462;BME280;75865;42.672;23.360;2024-01-30T11:14:27;97040.94;;;17.63;23.03
85462;BME280;75865;42.672;23.360;2024-01-30T11:16:59;97035.66;;;18.18;22.94
85462;BME280;75865;42.672;23.360;2024-01-30T11:19:26;97037.22;;;18.71;22.13
85462;BME280;75865;42.672;23.360;2024-01-30T11:21:54;97035.69;;;19.48;21.80
85462;BME280;75865;42.672;23.360;2024-01-30T11:24:23;97044.75;;;20.23;20.75
85462;BME280;75865;42.672;23.360;2024-01-30T11:27:00;97038.19;;;20.97;20.37
85462;BME280;75865;42.672;23.360;2024-01-30T11:29:30;97036.63;;;21.23;19.44
85462;BME280;75865;42.672;23.360;2024-01-30T11:32:00;97037.66;;;21.29;19.43
85462;BME280;75865;42.672;23.360;2024-01-30T11:34:26;97044.78;;;21.79;19.73
85462;BME280;75865;42.672;23.360;2024-01-30T11:36:58;97045.38;;;21.86;17.84
85462;BME280;75865;42.672;23.360;2024-01-30T11:39:26;97034.94;;;20.63;18.16
85462;BME280;75865;42.672;23.360;2024-01-30T11:41:54;97029.28;;;19.35;19.23
85462;BME280;75865;42.672;23.360;2024-01-30T11:44:22;97027.34;;;18.54;20.52
85462;BME280;75865;42.672;23.360;2024-01-30T11:46:50;97038.56;;;18.41;21.07
85462;BME280;75865;42.672;23.360;2024-01-30T11:49:17;97033.88;;;17.97;20.99
85462;BME280;75865;42.672;23.360;2024-01-30T11:51:48;97021.34;;;17.59;21.13
85462;BME280;75865;42.672;23.360;2024-01-30T11:54:19;97021.78;;;17.47;21.74
85462;BME280;75865;42.672;23.360;2024-01-30T11:56:46;97021.19;;;17.98;21.74
85462;BME280;75865;42.672;23.360;2024-01-30T11:59:14;97012.78;;;18.51;21.14
85462;BME280;75865;42.672;23.360;2024-01-30T12:01:40;97012.16;;;19.19;20.21
85462;BME280;75865;42.672;23.360;2024-01-30T12:04:09;97009.00;;;19.24;20.61
85462;BME280;75865;42.672;23.360;2024-01-30T12:06:37;96997.06;;;19.28;20.21
85462;BME280;75865;42.672;23.360;2024-01-30T12:09:04;96999.97;;;19.07;20.26
85462;BME280;75865;42.672;23.360;2024-01-30T12:11:32;96989.72;;;18.95;20.70
85462;BME280;75865;42.672;23.360;2024-01-30T12:13:59;96982.88;;;18.42;20.65
85462;BME280;75865;42.672;23.360;2024-01-30T12:16:26;96979.16;;;17.59;20.96
85462;BME280;75865;42.672;23.360;2024-01-30T12:19:00;96971.03;;;16.72;21.46
85462;BME280;75865;42.672;23.360;2024-01-30T12:21:30;96975.25;;;16.13;22.56
85462;BME280;75865;42.672;23.360;2024-01-30T12:23:57;96975.16;;;15.63;23.13
85462;BME280;75865;42.672;23.360;2024-01-30T12:26:25;96965.03;;;15.17;23.58
85462;BME280;75865;42.672;23.360;2024-01-30T12:28:55;96967.78;;;14.66;24.14
85462;BME280;75865;42.672;23.360;2024-01-30T12:31:26;96960.06;;;14.03;24.34
85462;BME280;75865;42.672;23.360;2024-01-30T12:33:54;96966.28;;;13.40;25.21
85462;BME280;75865;42.672;23.360;2024-01-30T12:36:25;96953.00;;;12.84;25.57
85462;BME280;75865;42.672;23.360;2024-01-30T12:38:52;96956.53;;;12.39;26.14
85462;BME280;75865;42.672;23.360;2024-01-30T12:41:20;96951.47;;;11.84;26.69
85462;BME280;75865;42.672;23.360;2024-01-30T12:43:47;96947.78;;;11.50;27.61
85462;BME280;75865;42.672;23.360;2024-01-30T12:46:17;96945.69;;;11.21;27.99
85462;BME280;75865;42.672;23.360;2024-01-30T12:48:44;96949.91;;;10.83;28.45
85462;BME280;75865;42.672;23.360;2024-01-30T12:51:11;96942.69;;;10.49;29.21
85462;BME280;75865;42.672;23.360;2024-01-30T12:53:38;96929.38;;;10.14;29.28
85462;BME280;75865;42.672;23.360;2024-01-30T12:56:05;96936.72;;;9.89;29.89
85462;BME280;75865;42.672;23.360;2024-01-30T12:58:31;96933.44;;;9.64;30.10
85462;BME280;75865;42.672;23.360;2024-01-30T13:00:58;96928.91;;;9.21;31.03